Time;durP1;ratioP1;P1;durP2;ratioP2;P2;SDS_P1;SDS_P2;PMS_P1;PMS_P2;Temp;Humidity;BMP_temperature;BMP_pressure;BME280_temperature;BME280_humidity;BME280_pressure;Samples;Min_cycle;Max_cycle;Signal;HPM_P1;HPM_P2
2022/10/24 04:42:04;;;;;;;;;;;13.90;99.90;;;;;;6208088;22;19943;-75
2022/10/24 04:54:53;;;;;;;;;;;14.10;99.90;;;;;;6069109;23;19993;-73
2022/10/24 09:30:44;;;;;;;;;;;14.50;99.90;;;;;;6207606;22;19931;-77
2022/10/24 09:33:49;;;;;;;;;;;;;;;;;;;;;
2022/10/24 10:21:59;;;;;;;;;;;15.70;99.90;;;;;;5924886;24;19956;-77
2022/10/24 10:24:58;;;;;;;;;;;;;;;;;;;;;
2022/10/24 10:56:22;;;;;;;;;;;15.00;99.90;;;;;;6095527;23;20425;-79
2022/10/24 10:59:07;;;;;;;;;;;14.80;99.90;;;;;;6130102;23;19916;-80
2022/10/24 11:02:04;;;;;;;;;;;14.80;99.90;;;;;;6160213;23;19927;-76
2022/10/24 11:05:09;;;;;;;;;;;14.70;99.90;;;;;;6162614;23;19939;-80
2022/10/24 11:07:36;;;;;;;;;;;14.70;99.90;;;;;;6157606;23;19923;-79
2022/10/24 11:24:54;;;;;;;;;;;14.30;99.90;;;;;;6184485;23;19958;-73
2022/10/24 11:38:58;;;;;;;;;;;;;;;;;;;;;
2022/10/24 11:41:52;;;;;;;;;;;14.20;99.90;;;;;;5978761;23;19921;-81
2022/10/24 11:44:45;;;;;;;;;;;14.30;99.90;;;;;;5990619;23;19924;-76
2022/10/24 11:54:13;;;;;;;;;;;14.40;99.90;;;;;;5976903;23;19918;-76
2022/10/24 13:22:46;;;;;;;;;;;14.10;99.90;;;;;;6096827;23;19916;-77
2022/10/24 13:25:47;;;;;;;;;;;14.00;99.90;;;;;;6130308;23;20249;-74
2022/10/24 14:49:16;;;;;;;;;;;14.30;99.90;;;;;;6211234;22;19919;-73
2022/10/24 14:58:57;;;;;;;;;;;14.20;99.90;;;;;;6066668;23;19917;-75
2022/10/24 15:01:26;;;;;;;;;;;14.10;99.90;;;;;;6159619;23;19916;-75
2022/10/24 15:04:00;;;;;;;;;;;14.10;99.90;;;;;;6186751;23;20398;-74
2022/10/24 15:06:48;;;;;;;;;;;14.10;99.90;;;;;;6135271;23;20220;-73
2022/10/24 15:09:19;;;;;;;;;;;14.10;99.90;;;;;;6132911;23;19922;-73
2022/10/24 15:11:49;;;;;;;;;;;14.10;99.90;;;;;;6135245;23;19927;-74
2022/10/24 15:14:36;;;;;;;;;;;14.10;99.90;;;;;;6160594;23;19920;-74
2022/10/24 15:17:06;;;;;;;;;;;14.10;99.90;;;;;;6134639;23;19920;-74
2022/10/24 15:19:38;;;;;;;;;;;14.10;99.90;;;;;;6160215;23;19979;-76
2022/10/24 15:22:20;;;;;;;;;;;14.10;99.90;;;;;;6160508;23;19928;-73
2022/10/24 15:24:55;;;;;;;;;;;14.10;99.90;;;;;;6111346;23;19916;-72
2022/10/24 15:27:35;;;;;;;;;;;14.00;99.90;;;;;;6159699;23;19916;-74
2022/10/24 15:30:14;;;;;;;;;;;14.00;99.90;;;;;;6160738;23;19917;-74
2022/10/24 15:32:43;;;;;;;;;;;14.00;99.90;;;;;;6135823;23;19962;-72
2022/10/24 15:35:29;;;;;;;;;;;13.90;99.90;;;;;;6160728;23;19920;-75
2022/10/24 15:37:58;;;;;;;;;;;13.80;99.90;;;;;;6159882;23;20002;-76
2022/10/24 15:44:28;;;;;;;;;;;13.80;99.90;;;;;;6049610;23;20056;-76
2022/10/24 15:47:32;;;;;;;;;;;13.80;99.90;;;;;;6089963;23;19923;-76
2022/10/24 15:50:20;;;;;;;;;;;13.70;99.90;;;;;;6147626;23;19966;-75
2022/10/24 15:52:53;;;;;;;;;;;13.70;99.90;;;;;;6189635;23;20242;-75
2022/10/24 15:55:24;;;;;;;;;;;13.70;99.90;;;;;;6165335;23;19987;-75
2022/10/24 15:58:17;;;;;;;;;;;13.60;99.90;;;;;;6165082;23;20387;-75
2022/10/24 16:01:15;;;;;;;;;;;13.60;99.90;;;;;;6165632;23;19923;-74
2022/10/24 16:07:34;;;;;;;;;;;13.50;99.90;;;;;;6188248;23;19954;-74
2022/10/24 19:28:54;;;;;;;;;;;11.40;99.90;;;;;;6041531;23;20013;-78
2022/10/24 19:38:13;;;;;;;;;;;11.30;99.90;;;;;;6099231;23;20018;-77
2022/10/24 19:43:49;;;;;;;;;;;11.40;99.90;;;;;;6189436;23;19990;-79
2022/10/24 19:47:36;;;;;;;;;;;11.40;99.90;;;;;;6162533;23;19916;-79
2022/10/24 19:50:11;;;;;;;;;;;;;;;;;;;;;
2022/10/24 19:56:37;;;;;;;;;;;;;;;;;;;;;
2022/10/24 20:05:06;;;;;;;;;;;;;;;;;;;;;
2022/10/24 20:08:11;;;;;;;;;;;11.50;99.90;;;;;;6187401;23;19926;-79
2022/10/24 20:32:13;;;;;;;;;;;11.50;99.90;;;;;;6094521;23;20032;-78
2022/10/24 20:45:01;;;;;;;;;;;11.60;99.90;;;;;;6094801;23;19963;-83
2022/10/24 20:57:54;;;;;;;;;;;11.80;99.90;;;;;;5917803;24;19923;-77
2022/10/24 21:07:41;;;;;;;;;;;11.80;99.90;;;;;;6037385;23;19993;-79
2022/10/24 21:10:12;;;;;;;;;;;11.80;99.90;;;;;;6014475;23;19940;-78
2022/10/24 21:30:56;;;;;;;;;;;11.50;99.90;;;;;;6205556;22;20398;-79
2022/10/24 21:33:37;;;;;;;;;;;11.40;99.90;;;;;;6165627;23;19947;-79
2022/10/24 21:36:10;;;;;;;;;;;11.40;99.90;;;;;;6167044;23;19922;-79
2022/10/24 21:38:35;;;;;;;;;;;11.40;99.90;;;;;;6166293;23;19951;-77
2022/10/24 21:41:02;;;;;;;;;;;11.40;99.90;;;;;;6165453;23;20331;-76
2022/10/24 21:43:29;;;;;;;;;;;11.40;99.90;;;;;;6165821;23;19916;-77
2022/10/24 21:46:04;;;;;;;;;;;11.40;99.90;;;;;;6165775;23;19920;-77
2022/10/24 21:48:31;;;;;;;;;;;11.30;99.90;;;;;;6190601;23;19923;-76
2022/10/24 21:51:12;;;;;;;;;;;11.30;99.90;;;;;;6166279;23;19916;-76
2022/10/24 21:53:40;;;;;;;;;;;11.30;99.90;;;;;;6166026;23;19990;-76
2022/10/24 21:56:09;;;;;;;;;;;11.30;99.90;;;;;;6190514;23;19916;-77
2022/10/24 21:58:35;;;;;;;;;;;11.40;99.90;;;;;;6190684;23;19920;-77
2022/10/24 22:01:07;;;;;;;;;;;11.30;99.90;;;;;;6165455;23;19920;-77
2022/10/24 22:03:32;;;;;;;;;;;11.30;99.90;;;;;;6190589;23;20353;-76
2022/10/24 22:05:58;;;;;;;;;;;11.30;99.90;;;;;;6165555;23;19916;-77
2022/10/24 22:08:23;;;;;;;;;;;11.30;99.90;;;;;;6165803;23;19926;-77
2022/10/24 22:10:56;;;;;;;;;;;11.30;99.90;;;;;;6165849;23;19916;-75
2022/10/24 22:13:22;;;;;;;;;;;11.30;99.90;;;;;;6165090;23;19923;-76
2022/10/24 22:15:47;;;;;;;;;;;11.30;99.90;;;;;;6165376;23;19951;-76
2022/10/24 22:18:13;;;;;;;;;;;11.30;99.90;;;;;;6190686;23;19923;-78
2022/10/24 22:20:39;;;;;;;;;;;11.30;99.90;;;;;;6166196;23;19995;-77
2022/10/24 22:23:04;;;;;;;;;;;11.20;99.90;;;;;;6190565;23;19967;-76
2022/10/24 22:25:30;;;;;;;;;;;11.30;99.90;;;;;;6166229;23;19995;-77
2022/10/24 22:27:56;;;;;;;;;;;11.30;99.90;;;;;;6190895;23;20378;-78
2022/10/24 22:30:21;;;;;;;;;;;11.30;99.90;;;;;;6191192;23;19927;-77
2022/10/24 22:32:47;;;;;;;;;;;11.10;99.90;;;;;;6166444;23;19935;-77
2022/10/24 22:35:13;;;;;;;;;;;11.30;99.90;;;;;;6189511;23;19912;-76
2022/10/24 22:37:39;;;;;;;;;;;11.20;99.90;;;;;;6194360;23;19904;-76
2022/10/24 22:40:13;;;;;;;;;;;11.20;99.90;;;;;;6194423;23;19904;-77
2022/10/24 22:42:38;;;;;;;;;;;11.20;99.90;;;;;;6188396;23;19923;-76
2022/10/24 22:45:04;;;;;;;;;;;11.20;99.90;;;;;;6190949;23;20242;-78
2022/10/24 22:47:36;;;;;;;;;;;11.20;99.90;;;;;;6190381;23;19920;-77
2022/10/24 22:50:20;;;;;;;;;;;11.20;99.90;;;;;;6165509;23;19951;-77
2022/10/24 22:52:47;;;;;;;;;;;11.20;99.90;;;;;;6190491;23;20327;-78
2022/10/24 22:55:31;;;;;;;;;;;11.10;99.90;;;;;;6165951;23;19920;-78
2022/10/24 22:57:57;;;;;;;;;;;11.20;99.90;;;;;;6165930;23;20314;-76
2022/10/24 23:00:23;;;;;;;;;;;11.10;99.90;;;;;;6166013;23;19919;-78
2022/10/24 23:02:50;;;;;;;;;;;11.10;99.90;;;;;;6165638;23;19927;-78
2022/10/24 23:05:28;;;;;;;;;;;11.10;99.90;;;;;;6165125;23;19920;-77
2022/10/24 23:07:57;;;;;;;;;;;11.10;99.90;;;;;;6190573;23;19919;-76
2022/10/24 23:10:24;;;;;;;;;;;11.10;99.90;;;;;;6165593;23;19920;-77
2022/10/24 23:12:50;;;;;;;;;;;11.00;99.90;;;;;;6190340;23;20343;-77
2022/10/24 23:15:16;;;;;;;;;;;11.00;99.90;;;;;;6165711;23;19915;-78
2022/10/24 23:17:43;;;;;;;;;;;11.00;99.90;;;;;;6165233;23;19998;-78
2022/10/24 23:20:15;;;;;;;;;;;11.00;99.90;;;;;;6190321;23;20278;-78
2022/10/24 23:22:42;;;;;;;;;;;11.10;99.90;;;;;;6165718;23;19946;-77
2022/10/24 23:25:08;;;;;;;;;;;11.10;99.90;;;;;;6165413;23;19919;-77
2022/10/24 23:27:38;;;;;;;;;;;11.10;99.90;;;;;;6189721;23;19930;-78
2022/10/24 23:30:07;;;;;;;;;;;11.00;99.90;;;;;;6165211;23;20359;-77
2022/10/24 23:32:36;;;;;;;;;;;11.10;99.90;;;;;;6160233;23;19916;-76
2022/10/24 23:35:01;;;;;;;;;;;11.10;99.90;;;;;;6185416;23;19920;-76
2022/10/24 23:37:30;;;;;;;;;;;11.10;99.90;;;;;;6160402;23;19943;-78
2022/10/24 23:39:57;;;;;;;;;;;11.10;99.90;;;;;;6160072;23;20359;-77
2022/10/24 23:42:22;;;;;;;;;;;11.10;99.90;;;;;;6160656;23;19991;-78
2022/10/24 23:44:48;;;;;;;;;;;11.20;99.90;;;;;;6160062;23;19952;-78
2022/10/24 23:47:16;;;;;;;;;;;11.20;99.90;;;;;;6154294;23;20364;-78
2022/10/24 23:49:46;;;;;;;;;;;11.30;99.90;;;;;;6130754;23;19920;-77
2022/10/24 23:52:21;;;;;;;;;;;11.30;99.90;;;;;;6155029;23;20327;-78
2022/10/24 23:54:46;;;;;;;;;;;11.30;99.90;;;;;;6130410;23;19917;-78
2022/10/24 23:57:13;;;;;;;;;;;11.30;99.90;;;;;;6130273;23;19923;-78
2022/10/24 23:59:39;;;;;;;;;;;11.30;99.90;;;;;;6130433;23;19916;-78
